createdAt,value
2023-04-23T00:00:19.282Z,99.90
2023-04-23T00:03:10.777Z,99.90
2023-04-23T00:05:39.396Z,99.90
2023-04-23T00:08:08.510Z,99.90
2023-04-23T00:10:37.311Z,99.90
2023-04-23T00:13:06.694Z,99.90
2023-04-23T00:15:35.498Z,99.90
2023-04-23T00:18:03.990Z,99.90
2023-04-23T00:20:34.218Z,99.90
2023-04-23T00:23:02.813Z,99.90
2023-04-23T00:25:31.114Z,99.90
2023-04-23T00:27:59.609Z,99.90
2023-04-23T00:30:27.840Z,99.90
2023-04-23T00:32:56.549Z,99.90
2023-04-23T00:35:24.704Z,99.90
2023-04-23T00:37:54.559Z,99.90
2023-04-23T00:40:23.651Z,99.90
2023-04-23T00:42:53.828Z,99.90
2023-04-23T00:45:22.500Z,99.90
2023-04-23T00:47:51.215Z,99.90
2023-04-23T00:50:19.470Z,99.90
2023-04-23T00:52:47.970Z,99.90
2023-04-23T00:55:20.921Z,99.90
2023-04-23T00:57:49.870Z,99.90
2023-04-23T01:00:20.405Z,99.90
2023-04-23T01:02:49.755Z,99.90
2023-04-23T01:05:19.257Z,99.90
2023-04-23T01:07:48.586Z,99.90
2023-04-23T01:10:18.706Z,99.90
2023-04-23T01:12:47.901Z,99.90
2023-04-23T01:15:16.751Z,99.90
2023-04-23T01:17:45.340Z,99.90
2023-04-23T01:20:13.688Z,99.90
2023-04-23T01:22:43.668Z,99.90
2023-04-23T01:25:12.140Z,99.90
2023-04-23T01:27:41.753Z,99.90
2023-04-23T01:30:10.953Z,99.90
2023-04-23T01:32:40.407Z,99.90
2023-04-23T01:35:09.316Z,99.90
2023-04-23T01:37:40.757Z,99.90
2023-04-23T01:40:11.237Z,99.90
2023-04-23T01:42:40.093Z,99.90
2023-04-23T01:45:10.115Z,99.90
2023-04-23T01:47:38.906Z,99.90
2023-04-23T01:50:08.246Z,99.90
2023-04-23T01:52:36.737Z,99.90
2023-04-23T01:55:05.475Z,99.90
2023-04-23T01:57:35.695Z,99.90
2023-04-23T02:00:08.492Z,99.90
2023-04-23T02:02:37.332Z,99.90
2023-04-23T02:05:06.983Z,99.90
2023-04-23T02:07:36.992Z,99.90
2023-04-23T02:10:06.072Z,99.90
2023-04-23T02:12:36.033Z,99.90
2023-04-23T02:15:04.770Z,99.90
2023-04-23T02:17:33.371Z,99.90
2023-04-23T02:20:02.324Z,99.90
2023-04-23T02:22:31.600Z,99.90
2023-04-23T02:25:00.167Z,99.90
2023-04-23T02:27:28.768Z,99.90
2023-04-23T02:29:58.816Z,99.90
2023-04-23T02:32:28.114Z,99.90
2023-04-23T02:34:56.623Z,99.90
2023-04-23T02:37:25.095Z,99.90
2023-04-23T02:39:53.285Z,99.90
2023-04-23T02:42:22.070Z,99.90
2023-04-23T02:44:50.237Z,99.90
2023-04-23T02:47:20.121Z,99.90
2023-04-23T02:49:48.368Z,99.90
2023-04-23T02:52:17.592Z,99.90
2023-04-23T02:54:45.932Z,99.90
2023-04-23T02:57:16.405Z,99.90
2023-04-23T02:59:44.843Z,99.90
2023-04-23T03:02:13.932Z,99.90
2023-04-23T03:04:43.900Z,99.90
2023-04-23T03:07:13.316Z,99.90
2023-04-23T03:09:42.381Z,99.90
2023-04-23T03:12:11.155Z,99.90
2023-04-23T03:14:39.484Z,99.90
2023-04-23T03:17:08.126Z,99.90
2023-04-23T03:19:36.542Z,99.90
2023-04-23T03:22:06.620Z,99.90
2023-04-23T03:24:35.676Z,99.90
2023-04-23T03:27:04.322Z,99.90
2023-04-23T03:29:32.556Z,99.90
2023-04-23T03:32:01.039Z,99.90
2023-04-23T03:34:29.554Z,99.90
2023-04-23T03:36:58.108Z,99.90
2023-04-23T03:39:27.825Z,99.90
2023-04-23T03:41:58.143Z,99.90
2023-04-23T03:44:29.331Z,99.90
2023-04-23T03:46:58.224Z,99.90
2023-04-23T03:49:27.940Z,99.90
2023-04-23T03:51:56.877Z,99.90
2023-04-23T03:54:26.653Z,99.90
2023-04-23T03:56:57.690Z,99.90
2023-04-23T03:59:25.876Z,99.90
2023-04-23T04:01:54.440Z,99.90
2023-04-23T04:04:23.534Z,99.90
2023-04-23T04:06:52.534Z,99.90
2023-04-23T04:09:22.057Z,99.90
2023-04-23T04:11:52.845Z,99.90
2023-04-23T04:14:23.477Z,99.90
2023-04-23T04:16:52.016Z,99.90
2023-04-23T04:19:20.367Z,99.90
2023-04-23T04:21:48.849Z,99.90
2023-04-23T04:24:17.366Z,99.90
2023-04-23T04:26:46.133Z,99.90
2023-04-23T04:29:15.107Z,99.90
2023-04-23T04:31:45.133Z,99.90
2023-04-23T04:34:14.988Z,99.90
2023-04-23T04:36:43.952Z,99.90
2023-04-23T04:39:13.606Z,99.90
2023-04-23T04:41:42.934Z,99.90
2023-04-23T04:44:11.215Z,99.90
2023-04-23T04:46:40.688Z,99.90
2023-04-23T04:49:10.925Z,99.90
2023-04-23T04:51:40.758Z,99.90
2023-04-23T04:54:09.632Z,99.90
2023-04-23T04:56:38.183Z,99.90
2023-04-23T04:59:06.642Z,99.90
2023-04-23T05:01:37.255Z,99.90
2023-04-23T05:04:06.076Z,99.90
2023-04-23T05:06:36.091Z,99.90
2023-04-23T05:09:04.540Z,99.90
2023-04-23T05:11:33.267Z,99.90
2023-04-23T05:14:01.445Z,99.90
2023-04-23T05:16:30.028Z,99.90
2023-04-23T05:18:58.336Z,99.90
2023-04-23T05:21:28.003Z,99.90
2023-04-23T05:23:57.636Z,99.90
2023-04-23T05:26:26.162Z,99.90
2023-04-23T05:28:54.489Z,99.90
2023-04-23T05:31:23.258Z,99.90
2023-04-23T05:33:51.646Z,99.90
2023-04-23T05:36:20.690Z,99.90
2023-04-23T05:38:49.211Z,99.90
2023-04-23T05:41:19.100Z,99.90
2023-04-23T05:43:47.233Z,99.90
2023-04-23T05:46:15.835Z,99.90
2023-04-23T05:48:44.214Z,99.70
2023-04-23T05:51:12.725Z,99.00
2023-04-23T05:53:40.922Z,98.30
2023-04-23T05:56:09.398Z,97.80
2023-04-23T05:58:39.802Z,97.10
2023-04-23T06:01:08.870Z,96.30
2023-04-23T06:03:37.833Z,95.40
2023-04-23T06:06:07.129Z,94.60
2023-04-23T06:08:35.530Z,93.90
2023-04-23T06:11:04.067Z,93.20
2023-04-23T06:13:32.796Z,92.50
2023-04-23T06:16:02.750Z,91.60
2023-04-23T06:18:31.294Z,90.80
2023-04-23T06:21:04.223Z,90.10
2023-04-23T06:23:32.663Z,88.70
2023-04-23T06:26:01.880Z,87.20
2023-04-23T06:28:30.076Z,85.60
2023-04-23T06:30:58.662Z,83.70
2023-04-23T06:33:28.475Z,82.80
2023-04-23T06:35:57.194Z,81.60
2023-04-23T06:38:25.508Z,80.50
2023-04-23T06:40:54.333Z,79.40
2023-04-23T06:43:22.677Z,78.20
2023-04-23T06:45:51.209Z,77.10
2023-04-23T06:48:21.059Z,76.20
2023-04-23T06:50:51.040Z,75.30
2023-04-23T06:53:19.281Z,74.40
2023-04-23T06:55:49.846Z,73.40
2023-04-23T06:58:18.374Z,72.90
2023-04-23T07:00:46.985Z,73.00
2023-04-23T07:03:15.290Z,71.40
2023-04-23T07:05:44.043Z,70.80
2023-04-23T07:08:14.612Z,70.10
2023-04-23T07:10:43.262Z,69.40
2023-04-23T07:13:11.998Z,68.80
2023-04-23T07:15:41.687Z,68.20
2023-04-23T07:18:10.251Z,67.70
2023-04-23T07:20:39.246Z,67.30
2023-04-23T07:23:07.517Z,66.80
2023-04-23T07:25:38.073Z,66.20
2023-04-23T07:28:06.856Z,65.70
2023-04-23T07:30:35.634Z,65.20
2023-04-23T07:33:04.092Z,64.60
2023-04-23T07:35:32.628Z,64.00
2023-04-23T07:38:00.814Z,63.40
2023-04-23T07:40:29.298Z,63.20
2023-04-23T07:42:59.706Z,62.90
2023-04-23T07:45:28.213Z,62.60
2023-04-23T07:47:56.727Z,62.40
2023-04-23T07:50:25.553Z,62.10
2023-04-23T07:52:53.884Z,62.00
2023-04-23T07:55:22.693Z,61.60
2023-04-23T07:57:51.049Z,61.10
2023-04-23T08:00:21.354Z,60.70
2023-04-23T08:02:51.723Z,60.40
2023-04-23T08:05:20.680Z,60.00
2023-04-23T08:07:49.601Z,59.70
2023-04-23T08:10:18.281Z,59.40
2023-04-23T08:12:46.589Z,59.80
2023-04-23T08:15:15.462Z,59.00
2023-04-23T08:17:45.492Z,58.90
2023-04-23T08:20:14.031Z,58.90
2023-04-23T08:22:42.323Z,58.70
2023-04-23T08:25:12.766Z,58.70
2023-04-23T08:27:41.013Z,58.70
2023-04-23T08:30:10.445Z,58.40
2023-04-23T08:32:40.723Z,58.30
2023-04-23T08:35:11.084Z,58.20
2023-04-23T08:37:40.199Z,58.10
2023-04-23T08:40:10.376Z,58.20
2023-04-23T08:42:44.888Z,58.30
2023-04-23T08:45:14.382Z,58.60
2023-04-23T08:47:43.912Z,58.10
2023-04-23T08:50:16.786Z,58.10
2023-04-23T08:52:48.942Z,58.40
2023-04-23T08:55:18.964Z,58.60
2023-04-23T08:57:48.019Z,58.40
2023-04-23T09:00:18.954Z,58.40
2023-04-23T09:02:49.481Z,58.60
2023-04-23T09:05:19.758Z,58.70
2023-04-23T09:07:48.092Z,58.70
2023-04-23T09:10:18.639Z,58.80
2023-04-23T09:12:48.324Z,58.70
2023-04-23T09:15:18.046Z,59.10
2023-04-23T09:17:48.133Z,58.60
2023-04-23T09:20:17.669Z,58.20
2023-04-23T09:22:48.918Z,57.70
2023-04-23T09:25:19.499Z,57.80
2023-04-23T09:27:48.677Z,57.50
2023-04-23T09:30:18.430Z,57.40
2023-04-23T09:32:49.594Z,57.40
2023-04-23T09:35:20.828Z,57.40
2023-04-23T09:37:53.329Z,57.80
2023-04-23T09:40:24.866Z,57.70
2023-04-23T09:42:54.491Z,57.40
2023-04-23T09:45:25.156Z,57.80
2023-04-23T09:47:54.923Z,57.70
2023-04-23T09:50:34.200Z,57.60
2023-04-23T09:53:04.251Z,57.30
2023-04-23T09:55:35.847Z,57.30
2023-04-23T09:58:05.469Z,57.40
2023-04-23T10:00:36.441Z,57.00
2023-04-23T10:03:06.771Z,56.90
2023-04-23T10:05:59.454Z,57.00
2023-04-23T10:08:31.464Z,57.20
2023-04-23T10:11:10.134Z,57.40
2023-04-23T10:13:48.732Z,57.40
2023-04-23T10:16:23.361Z,57.30
2023-04-23T10:18:55.584Z,57.20
2023-04-23T10:21:34.014Z,57.00
2023-04-23T10:24:11.716Z,56.30
2023-04-23T10:26:43.219Z,56.30
2023-04-23T10:29:15.837Z,56.30
2023-04-23T10:31:44.893Z,56.70
2023-04-23T10:34:14.081Z,56.90
2023-04-23T10:36:42.927Z,56.80
2023-04-23T10:39:15.815Z,56.20
2023-04-23T10:41:49.864Z,55.90
2023-04-23T10:44:26.696Z,55.60
2023-04-23T10:47:08.195Z,56.00
2023-04-23T10:49:36.755Z,55.90
2023-04-23T10:54:43.994Z,55.90
2023-04-23T10:57:12.975Z,55.80
2023-04-23T10:59:52.392Z,56.00
2023-04-23T11:02:21.466Z,56.30
2023-04-23T11:04:57.712Z,56.40
2023-04-23T11:07:31.244Z,56.00
2023-04-23T11:10:11.935Z,55.70
2023-04-23T11:12:41.170Z,55.50
2023-04-23T11:15:14.309Z,55.80
2023-04-23T11:18:03.553Z,56.30
2023-04-23T11:20:31.952Z,56.10
2023-04-23T11:23:01.021Z,56.20
2023-04-23T11:25:31.064Z,56.70
2023-04-23T11:28:00.000Z,56.70
2023-04-23T11:30:30.032Z,56.80
2023-04-23T11:33:00.422Z,57.10
2023-04-23T11:35:30.571Z,56.90
2023-04-23T11:37:59.216Z,57.00
2023-04-23T11:40:29.771Z,57.10
2023-04-23T11:42:59.868Z,57.40
2023-04-23T11:45:29.867Z,57.60
2023-04-23T11:47:59.762Z,57.40
2023-04-23T11:50:29.936Z,57.20
2023-04-23T11:52:59.095Z,58.10
2023-04-23T11:55:27.453Z,57.60
2023-04-23T11:57:56.119Z,57.50
2023-04-23T12:00:27.930Z,58.00
2023-04-23T12:02:57.969Z,57.20
2023-04-23T12:05:30.317Z,57.00
2023-04-23T12:08:09.901Z,56.70
2023-04-23T12:10:47.048Z,56.80
2023-04-23T12:13:16.809Z,57.10
2023-04-23T12:15:51.640Z,57.30
2023-04-23T12:18:20.784Z,57.50
2023-04-23T12:20:49.010Z,57.50
2023-04-23T12:23:17.739Z,57.40
2023-04-23T12:25:46.222Z,57.70
2023-04-23T12:28:14.991Z,57.80
2023-04-23T12:30:46.350Z,58.60
2023-04-23T12:33:17.074Z,57.80
2023-04-23T12:35:48.066Z,57.70
2023-04-23T12:38:24.760Z,57.70
2023-04-23T12:40:53.374Z,57.80
2023-04-23T12:43:22.404Z,57.90
2023-04-23T12:45:51.294Z,58.20
2023-04-23T12:48:21.578Z,58.60
2023-04-23T12:50:50.326Z,58.80
2023-04-23T12:53:19.670Z,59.00
2023-04-23T12:55:48.503Z,59.10
2023-04-23T12:58:17.038Z,59.10
2023-04-23T13:00:46.389Z,59.20
2023-04-23T13:03:15.727Z,59.30
2023-04-23T13:05:45.384Z,59.60
2023-04-23T13:08:13.956Z,59.80
2023-04-23T13:10:42.378Z,59.90
2023-04-23T13:13:11.037Z,59.80
2023-04-23T13:15:39.272Z,59.80
2023-04-23T13:18:07.941Z,60.00
2023-04-23T13:20:36.112Z,60.40
2023-04-23T13:23:08.740Z,60.60
2023-04-23T13:25:37.551Z,60.80
2023-04-23T13:28:06.070Z,61.00
2023-04-23T13:30:34.375Z,61.40
2023-04-23T13:33:02.982Z,61.50
2023-04-23T13:35:31.315Z,61.50
2023-04-23T13:38:00.638Z,61.70
2023-04-23T13:40:30.327Z,61.80
2023-04-23T13:42:58.959Z,61.80
2023-04-23T13:45:27.732Z,62.00
2023-04-23T13:47:56.549Z,62.00
2023-04-23T13:50:24.919Z,62.00
2023-04-23T13:52:53.396Z,62.00
2023-04-23T13:55:21.588Z,62.20
2023-04-23T13:57:51.499Z,62.10
2023-04-23T14:00:19.878Z,62.10
2023-04-23T14:02:48.735Z,62.10
2023-04-23T14:05:17.216Z,62.20
2023-04-23T14:07:45.910Z,62.50
2023-04-23T14:10:15.312Z,62.60
2023-04-23T14:12:45.226Z,62.80
2023-04-23T14:15:15.023Z,62.90
2023-04-23T14:17:44.451Z,62.90
2023-04-23T14:20:15.528Z,63.00
2023-04-23T14:22:44.925Z,64.20
2023-04-23T14:25:17.090Z,63.70
2023-04-23T14:27:47.881Z,64.10
2023-04-23T14:30:20.566Z,64.40
2023-04-23T14:32:50.516Z,64.80
2023-04-23T14:35:24.529Z,64.90
2023-04-23T14:37:58.323Z,65.40
2023-04-23T14:40:26.618Z,65.70
2023-04-23T14:42:59.216Z,65.90
2023-04-23T14:45:34.500Z,66.20
2023-04-23T14:48:03.078Z,66.30
2023-04-23T14:50:31.561Z,66.80
2023-04-23T14:53:00.339Z,66.90
2023-04-23T14:55:28.909Z,67.40
2023-04-23T14:57:57.460Z,67.90
2023-04-23T15:00:26.201Z,68.50
2023-04-23T15:02:56.293Z,69.30
2023-04-23T15:05:25.304Z,69.80
2023-04-23T15:07:53.835Z,70.40
2023-04-23T15:10:23.554Z,71.10
2023-04-23T15:13:01.200Z,71.90
2023-04-23T15:15:44.271Z,72.50
2023-04-23T15:18:15.457Z,72.80
2023-04-23T15:20:44.512Z,73.00
2023-04-23T15:23:13.155Z,72.90
2023-04-23T15:25:41.641Z,72.90
2023-04-23T15:28:10.246Z,73.00
2023-04-23T15:30:39.769Z,73.10
2023-04-23T15:33:10.338Z,73.30
2023-04-23T15:35:40.501Z,73.50
2023-04-23T15:38:09.454Z,73.60
2023-04-23T15:40:42.289Z,73.70
2023-04-23T15:43:13.612Z,73.80
2023-04-23T15:45:42.653Z,74.70
2023-04-23T15:48:11.236Z,75.10
2023-04-23T15:50:40.868Z,75.40
2023-04-23T15:53:09.546Z,75.70
2023-04-23T15:55:39.196Z,75.90
2023-04-23T15:58:07.984Z,76.20
2023-04-23T16:00:36.263Z,76.50
2023-04-23T16:03:06.890Z,77.00
2023-04-23T16:05:36.626Z,77.60
2023-04-23T16:08:06.754Z,77.90
2023-04-23T16:10:35.225Z,78.40
2023-04-23T16:13:03.854Z,78.80
2023-04-23T16:15:32.190Z,79.50
2023-04-23T16:18:00.928Z,80.00
2023-04-23T16:20:29.830Z,80.70
2023-04-23T16:22:58.822Z,81.30
2023-04-23T16:25:29.010Z,81.90
2023-04-23T16:27:58.785Z,82.50
2023-04-23T16:30:27.207Z,82.80
2023-04-23T16:32:56.081Z,83.30
2023-04-23T16:35:24.610Z,83.70
2023-04-23T16:37:53.436Z,84.20
2023-04-23T16:40:21.865Z,84.40
2023-04-23T16:42:51.873Z,84.90
2023-04-23T16:45:23.176Z,85.50
2023-04-23T16:47:51.927Z,86.10
2023-04-23T16:50:20.847Z,86.60
2023-04-23T16:52:49.484Z,87.20
2023-04-23T16:55:17.910Z,88.00
2023-04-23T16:57:46.592Z,88.70
2023-04-23T17:00:17.994Z,89.30
2023-04-23T17:02:47.025Z,89.90
2023-04-23T17:05:15.890Z,90.10
2023-04-23T17:07:44.902Z,90.40
2023-04-23T17:10:15.365Z,90.60
2023-04-23T17:12:43.977Z,90.80
2023-04-23T17:15:13.047Z,91.00
2023-04-23T17:17:43.281Z,91.20
2023-04-23T17:20:11.625Z,91.40
2023-04-23T17:22:40.369Z,91.60
2023-04-23T17:25:09.864Z,91.80
2023-04-23T17:27:38.476Z,92.00
2023-04-23T17:30:08.078Z,92.20
2023-04-23T17:32:36.712Z,92.40
2023-04-23T17:35:10.606Z,92.70
2023-04-23T17:37:39.969Z,92.90
2023-04-23T17:40:10.770Z,93.10
2023-04-23T17:42:39.918Z,93.30
2023-04-23T17:45:10.091Z,93.50
2023-04-23T17:47:40.798Z,93.70
2023-04-23T17:50:12.010Z,94.00
2023-04-23T17:52:41.199Z,94.10
2023-04-23T17:55:10.318Z,94.30
2023-04-23T17:57:38.898Z,94.60
2023-04-23T18:00:10.769Z,94.80
2023-04-23T18:02:41.568Z,95.00
2023-04-23T18:05:14.679Z,95.20
2023-04-23T18:07:44.869Z,95.40
2023-04-23T18:10:13.406Z,95.60
2023-04-23T18:12:41.873Z,95.90
2023-04-23T18:15:12.402Z,96.10
2023-04-23T18:17:41.306Z,96.20
2023-04-23T18:20:11.778Z,96.50
2023-04-23T18:22:41.557Z,96.60
2023-04-23T18:25:11.460Z,96.80
2023-04-23T18:27:40.404Z,97.10
2023-04-23T18:30:09.935Z,97.30
2023-04-23T18:32:44.489Z,97.50
2023-04-23T18:35:14.785Z,98.00
2023-04-23T18:37:48.173Z,98.20
2023-04-23T18:40:16.508Z,98.60
2023-04-23T18:42:45.046Z,98.90
2023-04-23T18:45:13.583Z,99.30
2023-04-23T18:47:45.522Z,99.60
2023-04-23T18:50:32.336Z,99.90
2023-04-23T18:53:00.948Z,99.90
2023-04-23T18:55:29.186Z,99.90
2023-04-23T18:57:57.729Z,99.90
2023-04-23T19:00:26.224Z,99.90
2023-04-23T19:02:54.875Z,99.90
2023-04-23T19:05:23.247Z,99.90
2023-04-23T19:07:53.264Z,99.90
2023-04-23T19:10:21.699Z,99.90
2023-04-23T19:12:50.960Z,99.90
2023-04-23T19:15:19.397Z,99.90
2023-04-23T19:17:48.231Z,99.90
2023-04-23T19:20:18.611Z,99.90
2023-04-23T19:22:47.255Z,99.90
2023-04-23T19:25:17.785Z,99.90
2023-04-23T19:27:46.436Z,99.90
2023-04-23T19:30:15.023Z,99.90
2023-04-23T19:32:43.602Z,99.90
2023-04-23T19:35:12.177Z,99.90
2023-04-23T19:37:40.907Z,99.90
2023-04-23T19:40:10.708Z,99.90
2023-04-23T19:42:41.342Z,99.90
2023-04-23T19:45:10.274Z,99.90
2023-04-23T19:47:40.197Z,99.90
2023-04-23T19:50:10.047Z,99.90
2023-04-23T19:52:38.715Z,99.90
2023-04-23T19:55:08.467Z,99.90
2023-04-23T19:57:37.272Z,99.90
2023-04-23T20:00:12.404Z,99.90
2023-04-23T20:02:41.347Z,99.90
2023-04-23T20:05:10.644Z,99.90
2023-04-23T20:07:39.163Z,99.90
2023-04-23T20:10:08.729Z,99.90
2023-04-23T20:12:37.368Z,99.90
2023-04-23T20:15:08.394Z,99.90
2023-04-23T20:17:37.096Z,99.90
2023-04-23T20:20:06.633Z,99.90
2023-04-23T20:22:35.352Z,99.90
2023-04-23T20:25:03.830Z,99.90
2023-04-23T20:27:33.870Z,99.90
2023-04-23T20:30:02.252Z,99.90
2023-04-23T20:32:32.222Z,99.90
2023-04-23T20:35:00.582Z,99.90
2023-04-23T20:37:29.404Z,99.90
2023-04-23T20:39:58.468Z,99.90
2023-04-23T20:42:29.036Z,99.90
2023-04-23T20:44:57.705Z,99.90
2023-04-23T20:47:44.177Z,99.90
2023-04-23T20:50:14.191Z,99.90
2023-04-23T20:52:42.709Z,99.90
2023-04-23T20:55:13.899Z,99.90
2023-04-23T20:57:42.513Z,99.90
2023-04-23T21:00:14.231Z,99.90
2023-04-23T21:02:43.143Z,99.90
2023-04-23T21:05:14.542Z,99.90
2023-04-23T21:07:44.483Z,99.90
2023-04-23T21:10:13.083Z,99.90
2023-04-23T21:12:43.403Z,99.90
2023-04-23T21:15:13.349Z,99.90
2023-04-23T21:17:42.691Z,99.90
2023-04-23T21:20:11.610Z,99.90
2023-04-23T21:22:41.657Z,99.90
2023-04-23T21:25:10.772Z,99.90
2023-04-23T21:27:39.604Z,99.90
2023-04-23T21:30:15.723Z,99.90
2023-04-23T21:32:44.289Z,99.90
2023-04-23T21:35:12.723Z,99.90
2023-04-23T21:37:42.724Z,99.90
2023-04-23T21:40:11.418Z,99.90
2023-04-23T21:42:40.376Z,99.90
2023-04-23T21:45:09.540Z,99.90
2023-04-23T21:47:38.849Z,99.90
2023-04-23T21:50:08.985Z,99.90
2023-04-23T21:52:37.981Z,99.90
2023-04-23T21:55:09.092Z,99.90
2023-04-23T21:57:39.388Z,99.90
2023-04-23T22:00:11.372Z,99.90
2023-04-23T22:02:40.506Z,99.90
2023-04-23T22:05:10.384Z,99.90
2023-04-23T22:07:41.376Z,99.90
2023-04-23T22:10:13.209Z,99.90
2023-04-23T22:12:42.796Z,99.90
2023-04-23T22:15:13.334Z,99.90
2023-04-23T22:17:43.402Z,99.90
2023-04-23T22:20:13.435Z,99.90
2023-04-23T22:22:43.186Z,99.90
2023-04-23T22:25:13.066Z,99.90
2023-04-23T22:27:42.953Z,99.90
2023-04-23T22:30:14.557Z,99.90
2023-04-23T22:32:43.347Z,99.90
2023-04-23T22:35:12.003Z,99.90
2023-04-23T22:37:40.824Z,99.90
2023-04-23T22:40:10.842Z,99.90
2023-04-23T22:42:40.821Z,99.90
2023-04-23T22:45:09.599Z,99.90
2023-04-23T22:47:38.403Z,99.90
2023-04-23T22:50:07.832Z,99.90
2023-04-23T22:52:39.572Z,99.90
2023-04-23T22:55:09.497Z,99.90
2023-04-23T22:57:38.178Z,99.90
2023-04-23T23:00:11.112Z,99.90
2023-04-23T23:02:40.061Z,99.90
2023-04-23T23:05:09.712Z,99.90
2023-04-23T23:07:38.578Z,99.90
2023-04-23T23:10:08.836Z,99.90
2023-04-23T23:12:39.140Z,99.90
2023-04-23T23:15:10.714Z,99.90
2023-04-23T23:17:39.616Z,99.90
2023-04-23T23:20:09.117Z,99.90
2023-04-23T23:22:37.857Z,99.90
2023-04-23T23:25:07.641Z,99.90
2023-04-23T23:27:36.413Z,99.90
2023-04-23T23:30:06.130Z,99.90
2023-04-23T23:32:36.248Z,99.90
2023-04-23T23:35:04.960Z,99.90
2023-04-23T23:37:33.450Z,99.90
2023-04-23T23:40:01.778Z,99.90
2023-04-23T23:42:30.256Z,99.90
2023-04-23T23:44:58.429Z,99.90
2023-04-23T23:47:27.117Z,99.90
2023-04-23T23:49:56.725Z,99.90
2023-04-23T23:52:25.331Z,99.90
2023-04-23T23:54:53.592Z,99.90
2023-04-23T23:57:22.050Z,99.90
2023-04-23T23:59:50.540Z,99.90
